sensor_id;sensor_type;location;lat;lon;timestamp;P1;durP1;ratioP1;P2;durP2;ratioP2
51660;SDS011;37741;49.748;8.490;2023-01-09T00:00:23;2.83;;;1.75;;
51660;SDS011;37741;49.748;8.490;2023-01-09T00:02:50;4.20;;;2.25;;
51660;SDS011;37741;49.748;8.490;2023-01-09T00:05:16;3.63;;;1.92;;
51660;SDS011;37741;49.748;8.490;2023-01-09T00:07:42;3.15;;;2.13;;
51660;SDS011;37741;49.748;8.490;2023-01-09T00:10:08;4.90;;;2.08;;
51660;SDS011;37741;49.748;8.490;2023-01-09T00:12:35;4.15;;;2.10;;
51660;SDS011;37741;49.748;8.490;2023-01-09T00:15:01;3.47;;;1.90;;
51660;SDS011;37741;49.748;8.490;2023-01-09T00:17:27;4.50;;;2.35;;
51660;SDS011;37741;49.748;8.490;2023-01-09T00:19:53;4.30;;;2.10;;
51660;SDS011;37741;49.748;8.490;2023-01-09T00:22:19;2.85;;;1.75;;
51660;SDS011;37741;49.748;8.490;2023-01-09T00:24:44;3.10;;;1.65;;
51660;SDS011;37741;49.748;8.490;2023-01-09T00:27:10;3.90;;;2.25;;
51660;SDS011;37741;49.748;8.490;2023-01-09T00:29:38;3.03;;;2.08;;
51660;SDS011;37741;49.748;8.490;2023-01-09T00:32:05;3.10;;;1.70;;
51660;SDS011;37741;49.748;8.490;2023-01-09T00:34:34;2.63;;;1.85;;
51660;SDS011;37741;49.748;8.490;2023-01-09T00:37:01;3.38;;;2.20;;
51660;SDS011;37741;49.748;8.490;2023-01-09T00:39:28;3.55;;;2.05;;
51660;SDS011;37741;49.748;8.490;2023-01-09T00:41:53;3.22;;;1.70;;
51660;SDS011;37741;49.748;8.490;2023-01-09T00:44:23;3.10;;;2.00;;
51660;SDS011;37741;49.748;8.490;2023-01-09T00:46:54;2.97;;;2.00;;
51660;SDS011;37741;49.748;8.490;2023-01-09T00:49:27;3.30;;;2.35;;
51660;SDS011;37741;49.748;8.490;2023-01-09T00:51:56;4.68;;;2.03;;
51660;SDS011;37741;49.748;8.490;2023-01-09T00:54:23;2.75;;;2.03;;
51660;SDS011;37741;49.748;8.490;2023-01-09T00:56:48;3.60;;;2.65;;
51660;SDS011;37741;49.748;8.490;2023-01-09T00:59:14;3.40;;;1.90;;
51660;SDS011;37741;49.748;8.490;2023-01-09T01:01:40;2.95;;;1.85;;
51660;SDS011;37741;49.748;8.490;2023-01-09T01:04:06;3.55;;;2.20;;
51660;SDS011;37741;49.748;8.490;2023-01-09T01:06:50;3.13;;;2.22;;
51660;SDS011;37741;49.748;8.490;2023-01-09T01:09:34;5.70;;;2.05;;
51660;SDS011;37741;49.748;8.490;2023-01-09T01:12:00;3.42;;;2.30;;
51660;SDS011;37741;49.748;8.490;2023-01-09T01:14:31;4.20;;;2.33;;
51660;SDS011;37741;49.748;8.490;2023-01-09T01:17:00;3.17;;;2.30;;
51660;SDS011;37741;49.748;8.490;2023-01-09T01:19:26;3.35;;;2.22;;
51660;SDS011;37741;49.748;8.490;2023-01-09T01:21:51;3.40;;;2.15;;
51660;SDS011;37741;49.748;8.490;2023-01-09T01:24:17;5.38;;;2.08;;
51660;SDS011;37741;49.748;8.490;2023-01-09T01:26:44;4.43;;;2.60;;
51660;SDS011;37741;49.748;8.490;2023-01-09T01:29:10;3.25;;;2.05;;
51660;SDS011;37741;49.748;8.490;2023-01-09T01:31:36;3.63;;;2.38;;
51660;SDS011;37741;49.748;8.490;2023-01-09T01:34:01;4.28;;;2.58;;
51660;SDS011;37741;49.748;8.490;2023-01-09T01:36:27;3.38;;;2.15;;
51660;SDS011;37741;49.748;8.490;2023-01-09T01:38:52;3.15;;;2.70;;
51660;SDS011;37741;49.748;8.490;2023-01-09T01:41:18;3.58;;;2.10;;
51660;SDS011;37741;49.748;8.490;2023-01-09T01:44:00;3.28;;;2.28;;
51660;SDS011;37741;49.748;8.490;2023-01-09T01:46:32;3.25;;;2.00;;
51660;SDS011;37741;49.748;8.490;2023-01-09T01:49:00;3.50;;;2.15;;
51660;SDS011;37741;49.748;8.490;2023-01-09T01:51:31;3.05;;;2.10;;
51660;SDS011;37741;49.748;8.490;2023-01-09T01:54:02;3.97;;;2.60;;
51660;SDS011;37741;49.748;8.490;2023-01-09T01:56:34;3.20;;;2.17;;
51660;SDS011;37741;49.748;8.490;2023-01-09T02:01:48;2.83;;;1.80;;
51660;SDS011;37741;49.748;8.490;2023-01-09T02:04:16;3.92;;;2.15;;
51660;SDS011;37741;49.748;8.490;2023-01-09T02:06:43;3.38;;;1.70;;
51660;SDS011;37741;49.748;8.490;2023-01-09T02:09:12;3.40;;;1.63;;
51660;SDS011;37741;49.748;8.490;2023-01-09T02:11:46;2.50;;;1.83;;
51660;SDS011;37741;49.748;8.490;2023-01-09T02:14:14;2.38;;;1.60;;
51660;SDS011;37741;49.748;8.490;2023-01-09T02:22:29;2.70;;;1.88;;
51660;SDS011;37741;49.748;8.490;2023-01-09T02:46:59;2.15;;;1.20;;
51660;SDS011;37741;49.748;8.490;2023-01-09T02:49:27;2.17;;;1.27;;
51660;SDS011;37741;49.748;8.490;2023-01-09T02:51:59;3.15;;;1.58;;
51660;SDS011;37741;49.748;8.490;2023-01-09T02:54:53;2.80;;;1.48;;
51660;SDS011;37741;49.748;8.490;2023-01-09T03:00:07;2.97;;;1.75;;
51660;SDS011;37741;49.748;8.490;2023-01-09T03:02:53;2.13;;;1.27;;
51660;SDS011;37741;49.748;8.490;2023-01-09T03:05:36;3.28;;;1.30;;
51660;SDS011;37741;49.748;8.490;2023-01-09T03:08:05;2.65;;;1.73;;
51660;SDS011;37741;49.748;8.490;2023-01-09T03:10:36;2.90;;;1.50;;
51660;SDS011;37741;49.748;8.490;2023-01-09T03:13:08;2.17;;;1.27;;
51660;SDS011;37741;49.748;8.490;2023-01-09T03:15:37;1.90;;;1.17;;
51660;SDS011;37741;49.748;8.490;2023-01-09T03:18:06;2.67;;;1.73;;
51660;SDS011;37741;49.748;8.490;2023-01-09T03:20:34;3.10;;;1.50;;
51660;SDS011;37741;49.748;8.490;2023-01-09T03:23:03;2.13;;;1.25;;
51660;SDS011;37741;49.748;8.490;2023-01-09T03:25:30;2.47;;;1.30;;
51660;SDS011;37741;49.748;8.490;2023-01-09T03:27:56;2.70;;;1.20;;
51660;SDS011;37741;49.748;8.490;2023-01-09T03:30:24;2.63;;;1.20;;
51660;SDS011;37741;49.748;8.490;2023-01-09T03:32:51;3.30;;;1.50;;
51660;SDS011;37741;49.748;8.490;2023-01-09T03:35:17;2.70;;;1.42;;
51660;SDS011;37741;49.748;8.490;2023-01-09T03:37:42;2.33;;;1.30;;
51660;SDS011;37741;49.748;8.490;2023-01-09T03:40:08;2.22;;;1.60;;
51660;SDS011;37741;49.748;8.490;2023-01-09T03:42:34;2.45;;;1.10;;
51660;SDS011;37741;49.748;8.490;2023-01-09T03:45:00;2.15;;;1.20;;
51660;SDS011;37741;49.748;8.490;2023-01-09T03:47:26;2.35;;;1.23;;
51660;SDS011;37741;49.748;8.490;2023-01-09T03:49:51;2.55;;;1.33;;
51660;SDS011;37741;49.748;8.490;2023-01-09T03:52:17;2.50;;;1.30;;
51660;SDS011;37741;49.748;8.490;2023-01-09T03:54:43;2.03;;;1.15;;
51660;SDS011;37741;49.748;8.490;2023-01-09T03:57:08;3.38;;;1.23;;
51660;SDS011;37741;49.748;8.490;2023-01-09T03:59:34;2.80;;;1.17;;
51660;SDS011;37741;49.748;8.490;2023-01-09T04:01:59;2.00;;;1.08;;
51660;SDS011;37741;49.748;8.490;2023-01-09T04:04:25;1.85;;;1.00;;
51660;SDS011;37741;49.748;8.490;2023-01-09T04:06:51;2.42;;;0.90;;
51660;SDS011;37741;49.748;8.490;2023-01-09T04:09:16;1.70;;;0.95;;
51660;SDS011;37741;49.748;8.490;2023-01-09T04:11:42;2.45;;;1.33;;
51660;SDS011;37741;49.748;8.490;2023-01-09T04:14:07;4.18;;;1.15;;
51660;SDS011;37741;49.748;8.490;2023-01-09T04:16:33;2.17;;;0.90;;
51660;SDS011;37741;49.748;8.490;2023-01-09T04:18:59;2.33;;;1.02;;
51660;SDS011;37741;49.748;8.490;2023-01-09T04:21:24;2.17;;;0.77;;
51660;SDS011;37741;49.748;8.490;2023-01-09T04:23:50;1.42;;;0.80;;
51660;SDS011;37741;49.748;8.490;2023-01-09T04:26:16;1.75;;;0.93;;
51660;SDS011;37741;49.748;8.490;2023-01-09T04:28:41;1.60;;;0.90;;
51660;SDS011;37741;49.748;8.490;2023-01-09T04:31:07;1.58;;;0.80;;
51660;SDS011;37741;49.748;8.490;2023-01-09T04:33:32;1.73;;;0.90;;
51660;SDS011;37741;49.748;8.490;2023-01-09T04:35:58;1.80;;;0.85;;
51660;SDS011;37741;49.748;8.490;2023-01-09T04:38:24;1.40;;;0.75;;
51660;SDS011;37741;49.748;8.490;2023-01-09T04:40:51;1.85;;;0.85;;
51660;SDS011;37741;49.748;8.490;2023-01-09T04:43:17;1.63;;;0.90;;
51660;SDS011;37741;49.748;8.490;2023-01-09T04:45:43;1.40;;;0.60;;
51660;SDS011;37741;49.748;8.490;2023-01-09T04:48:08;1.13;;;0.60;;
51660;SDS011;37741;49.748;8.490;2023-01-09T04:50:34;1.75;;;0.80;;
51660;SDS011;37741;49.748;8.490;2023-01-09T04:53:00;1.48;;;0.63;;
51660;SDS011;37741;49.748;8.490;2023-01-09T04:55:25;1.58;;;0.77;;
51660;SDS011;37741;49.748;8.490;2023-01-09T04:57:52;1.83;;;0.70;;
51660;SDS011;37741;49.748;8.490;2023-01-09T05:00:17;0.75;;;0.45;;
51660;SDS011;37741;49.748;8.490;2023-01-09T05:02:43;1.70;;;0.80;;
51660;SDS011;37741;49.748;8.490;2023-01-09T05:05:09;1.33;;;0.90;;
51660;SDS011;37741;49.748;8.490;2023-01-09T05:07:35;1.00;;;0.50;;
51660;SDS011;37741;49.748;8.490;2023-01-09T05:10:01;0.82;;;0.47;;
51660;SDS011;37741;49.748;8.490;2023-01-09T05:12:28;1.00;;;0.60;;
51660;SDS011;37741;49.748;8.490;2023-01-09T05:14:53;0.68;;;0.40;;
51660;SDS011;37741;49.748;8.490;2023-01-09T05:17:19;1.42;;;0.60;;
51660;SDS011;37741;49.748;8.490;2023-01-09T05:19:45;0.90;;;0.50;;
51660;SDS011;37741;49.748;8.490;2023-01-09T05:22:11;1.00;;;0.50;;
51660;SDS011;37741;49.748;8.490;2023-01-09T05:24:37;1.38;;;0.60;;
51660;SDS011;37741;49.748;8.490;2023-01-09T05:27:02;2.78;;;0.50;;
51660;SDS011;37741;49.748;8.490;2023-01-09T05:29:28;1.48;;;0.60;;
51660;SDS011;37741;49.748;8.490;2023-01-09T05:31:54;2.13;;;0.70;;
51660;SDS011;37741;49.748;8.490;2023-01-09T05:34:20;0.73;;;0.40;;
51660;SDS011;37741;49.748;8.490;2023-01-09T05:36:48;1.75;;;0.80;;
51660;SDS011;37741;49.748;8.490;2023-01-09T05:39:13;1.35;;;0.50;;
51660;SDS011;37741;49.748;8.490;2023-01-09T05:41:39;1.38;;;0.50;;
51660;SDS011;37741;49.748;8.490;2023-01-09T05:44:05;1.35;;;0.60;;
51660;SDS011;37741;49.748;8.490;2023-01-09T05:46:31;1.70;;;0.57;;
51660;SDS011;37741;49.748;8.490;2023-01-09T05:48:57;1.05;;;0.60;;
51660;SDS011;37741;49.748;8.490;2023-01-09T05:51:23;0.95;;;0.50;;
51660;SDS011;37741;49.748;8.490;2023-01-09T05:53:48;0.73;;;0.40;;
51660;SDS011;37741;49.748;8.490;2023-01-09T05:56:14;1.38;;;0.60;;
51660;SDS011;37741;49.748;8.490;2023-01-09T05:58:40;2.55;;;0.93;;
51660;SDS011;37741;49.748;8.490;2023-01-09T06:01:06;0.75;;;0.40;;
51660;SDS011;37741;49.748;8.490;2023-01-09T06:03:32;0.93;;;0.43;;
51660;SDS011;37741;49.748;8.490;2023-01-09T06:05:58;1.17;;;0.70;;
51660;SDS011;37741;49.748;8.490;2023-01-09T06:08:24;1.27;;;0.50;;
51660;SDS011;37741;49.748;8.490;2023-01-09T06:10:50;1.75;;;0.50;;
51660;SDS011;37741;49.748;8.490;2023-01-09T06:13:15;2.75;;;0.57;;
51660;SDS011;37741;49.748;8.490;2023-01-09T06:15:41;1.30;;;0.60;;
51660;SDS011;37741;49.748;8.490;2023-01-09T06:18:07;2.05;;;0.60;;
51660;SDS011;37741;49.748;8.490;2023-01-09T06:20:33;1.60;;;0.60;;
51660;SDS011;37741;49.748;8.490;2023-01-09T06:22:58;0.90;;;0.40;;
51660;SDS011;37741;49.748;8.490;2023-01-09T06:25:26;1.58;;;0.60;;
51660;SDS011;37741;49.748;8.490;2023-01-09T06:27:52;2.58;;;0.73;;
51660;SDS011;37741;49.748;8.490;2023-01-09T06:30:18;1.10;;;0.70;;
51660;SDS011;37741;49.748;8.490;2023-01-09T06:32:44;2.28;;;0.60;;
51660;SDS011;37741;49.748;8.490;2023-01-09T06:35:13;1.45;;;0.63;;
51660;SDS011;37741;49.748;8.490;2023-01-09T06:37:38;2.17;;;0.80;;
51660;SDS011;37741;49.748;8.490;2023-01-09T06:40:04;1.73;;;0.57;;
51660;SDS011;37741;49.748;8.490;2023-01-09T06:42:30;1.48;;;0.60;;
51660;SDS011;37741;49.748;8.490;2023-01-09T06:44:56;2.28;;;0.73;;
51660;SDS011;37741;49.748;8.490;2023-01-09T06:47:22;1.92;;;0.77;;
51660;SDS011;37741;49.748;8.490;2023-01-09T06:49:47;1.27;;;0.50;;
51660;SDS011;37741;49.748;8.490;2023-01-09T06:52:13;2.80;;;1.67;;
51660;SDS011;37741;49.748;8.490;2023-01-09T06:54:38;1.45;;;0.60;;
51660;SDS011;37741;49.748;8.490;2023-01-09T06:57:04;2.05;;;0.90;;
51660;SDS011;37741;49.748;8.490;2023-01-09T06:59:30;2.95;;;0.82;;
51660;SDS011;37741;49.748;8.490;2023-01-09T07:01:55;1.52;;;0.70;;
51660;SDS011;37741;49.748;8.490;2023-01-09T07:04:21;2.15;;;0.70;;
51660;SDS011;37741;49.748;8.490;2023-01-09T07:06:47;1.58;;;0.63;;
51660;SDS011;37741;49.748;8.490;2023-01-09T07:09:13;3.28;;;0.65;;
51660;SDS011;37741;49.748;8.490;2023-01-09T07:11:39;1.70;;;0.60;;
51660;SDS011;37741;49.748;8.490;2023-01-09T07:14:05;4.65;;;1.33;;
51660;SDS011;37741;49.748;8.490;2023-01-09T07:16:31;2.15;;;0.63;;
51660;SDS011;37741;49.748;8.490;2023-01-09T07:18:57;2.05;;;0.80;;
51660;SDS011;37741;49.748;8.490;2023-01-09T07:21:23;1.50;;;0.50;;
51660;SDS011;37741;49.748;8.490;2023-01-09T07:23:49;2.58;;;0.73;;
51660;SDS011;37741;49.748;8.490;2023-01-09T07:26:15;3.25;;;0.60;;
51660;SDS011;37741;49.748;8.490;2023-01-09T07:28:40;2.65;;;0.80;;
51660;SDS011;37741;49.748;8.490;2023-01-09T07:31:06;1.48;;;0.47;;
51660;SDS011;37741;49.748;8.490;2023-01-09T07:33:32;3.20;;;0.63;;
51660;SDS011;37741;49.748;8.490;2023-01-09T07:35:58;1.88;;;0.55;;
51660;SDS011;37741;49.748;8.490;2023-01-09T07:38:24;1.67;;;0.60;;
51660;SDS011;37741;49.748;8.490;2023-01-09T07:40:49;3.63;;;0.70;;
51660;SDS011;37741;49.748;8.490;2023-01-09T07:43:15;4.43;;;0.80;;
51660;SDS011;37741;49.748;8.490;2023-01-09T07:45:41;3.83;;;0.98;;
51660;SDS011;37741;49.748;8.490;2023-01-09T07:48:06;3.30;;;1.05;;
51660;SDS011;37741;49.748;8.490;2023-01-09T07:50:32;2.38;;;0.60;;
51660;SDS011;37741;49.748;8.490;2023-01-09T07:52:58;2.05;;;0.98;;
51660;SDS011;37741;49.748;8.490;2023-01-09T07:55:23;2.70;;;1.17;;
51660;SDS011;37741;49.748;8.490;2023-01-09T07:57:49;4.82;;;0.93;;
51660;SDS011;37741;49.748;8.490;2023-01-09T08:00:15;2.50;;;0.82;;
51660;SDS011;37741;49.748;8.490;2023-01-09T08:02:42;2.20;;;0.60;;
51660;SDS011;37741;49.748;8.490;2023-01-09T08:05:07;1.95;;;0.70;;
51660;SDS011;37741;49.748;8.490;2023-01-09T08:07:37;3.58;;;0.75;;
51660;SDS011;37741;49.748;8.490;2023-01-09T08:10:03;3.47;;;0.90;;
51660;SDS011;37741;49.748;8.490;2023-01-09T08:12:29;3.47;;;0.93;;
51660;SDS011;37741;49.748;8.490;2023-01-09T08:14:54;2.38;;;0.80;;
51660;SDS011;37741;49.748;8.490;2023-01-09T08:17:20;4.13;;;0.98;;
51660;SDS011;37741;49.748;8.490;2023-01-09T08:19:45;3.63;;;1.08;;
51660;SDS011;37741;49.748;8.490;2023-01-09T08:22:11;2.50;;;0.80;;
51660;SDS011;37741;49.748;8.490;2023-01-09T08:24:37;2.65;;;1.10;;
51660;SDS011;37741;49.748;8.490;2023-01-09T08:27:02;4.55;;;2.10;;
51660;SDS011;37741;49.748;8.490;2023-01-09T08:29:28;3.40;;;1.25;;
51660;SDS011;37741;49.748;8.490;2023-01-09T08:31:54;4.47;;;1.20;;
51660;SDS011;37741;49.748;8.490;2023-01-09T08:34:20;4.68;;;1.63;;
51660;SDS011;37741;49.748;8.490;2023-01-09T08:36:45;2.25;;;1.00;;
51660;SDS011;37741;49.748;8.490;2023-01-09T08:39:11;3.20;;;1.08;;
51660;SDS011;37741;49.748;8.490;2023-01-09T08:41:37;4.75;;;1.10;;
51660;SDS011;37741;49.748;8.490;2023-01-09T08:44:21;3.78;;;1.00;;
51660;SDS011;37741;49.748;8.490;2023-01-09T08:47:05;3.25;;;1.02;;
51660;SDS011;37741;49.748;8.490;2023-01-09T08:49:32;4.32;;;0.90;;
51660;SDS011;37741;49.748;8.490;2023-01-09T08:51:58;3.08;;;0.90;;
51660;SDS011;37741;49.748;8.490;2023-01-09T08:54:24;1.55;;;0.60;;
51660;SDS011;37741;49.748;8.490;2023-01-09T08:56:50;3.75;;;0.95;;
51660;SDS011;37741;49.748;8.490;2023-01-09T08:59:16;5.43;;;1.67;;
51660;SDS011;37741;49.748;8.490;2023-01-09T09:01:41;3.97;;;1.00;;
51660;SDS011;37741;49.748;8.490;2023-01-09T09:04:07;4.25;;;1.08;;
51660;SDS011;37741;49.748;8.490;2023-01-09T09:06:33;3.50;;;1.23;;
51660;SDS011;37741;49.748;8.490;2023-01-09T09:08:59;2.90;;;0.77;;
51660;SDS011;37741;49.748;8.490;2023-01-09T09:11:27;2.95;;;1.10;;
51660;SDS011;37741;49.748;8.490;2023-01-09T09:13:54;3.80;;;1.10;;
51660;SDS011;37741;49.748;8.490;2023-01-09T09:16:20;2.88;;;0.75;;
51660;SDS011;37741;49.748;8.490;2023-01-09T09:18:46;2.28;;;0.70;;
51660;SDS011;37741;49.748;8.490;2023-01-09T09:21:11;2.33;;;0.57;;
51660;SDS011;37741;49.748;8.490;2023-01-09T09:23:37;4.43;;;0.93;;
51660;SDS011;37741;49.748;8.490;2023-01-09T09:26:03;2.03;;;0.60;;
51660;SDS011;37741;49.748;8.490;2023-01-09T09:28:29;3.45;;;0.90;;
51660;SDS011;37741;49.748;8.490;2023-01-09T09:30:54;2.40;;;0.70;;
51660;SDS011;37741;49.748;8.490;2023-01-09T09:33:20;2.65;;;0.75;;
51660;SDS011;37741;49.748;8.490;2023-01-09T09:35:46;3.65;;;1.25;;
51660;SDS011;37741;49.748;8.490;2023-01-09T09:38:11;2.75;;;0.82;;
51660;SDS011;37741;49.748;8.490;2023-01-09T09:54:22;2.25;;;0.85;;
51660;SDS011;37741;49.748;8.490;2023-01-09T09:56:55;2.47;;;1.10;;
51660;SDS011;37741;49.748;8.490;2023-01-09T09:59:24;3.00;;;1.15;;
51660;SDS011;37741;49.748;8.490;2023-01-09T10:01:56;5.07;;;1.10;;
51660;SDS011;37741;49.748;8.490;2023-01-09T10:04:26;3.38;;;1.35;;
51660;SDS011;37741;49.748;8.490;2023-01-09T10:07:04;3.17;;;1.00;;
51660;SDS011;37741;49.748;8.490;2023-01-09T10:09:54;4.07;;;0.90;;
51660;SDS011;37741;49.748;8.490;2023-01-09T10:12:31;4.47;;;1.15;;
51660;SDS011;37741;49.748;8.490;2023-01-09T10:15:05;3.67;;;0.93;;
51660;SDS011;37741;49.748;8.490;2023-01-09T10:17:45;4.28;;;0.85;;
51660;SDS011;37741;49.748;8.490;2023-01-09T10:23:09;3.22;;;0.88;;
51660;SDS011;37741;49.748;8.490;2023-01-09T10:25:42;1.85;;;0.70;;
51660;SDS011;37741;49.748;8.490;2023-01-09T10:39:22;1.30;;;0.50;;
51660;SDS011;37741;49.748;8.490;2023-01-09T10:42:09;2.05;;;0.88;;
51660;SDS011;37741;49.748;8.490;2023-01-09T10:44:38;1.67;;;0.60;;
51660;SDS011;37741;49.748;8.490;2023-01-09T10:47:22;4.65;;;1.05;;
51660;SDS011;37741;49.748;8.490;2023-01-09T10:49:51;2.65;;;0.77;;
51660;SDS011;37741;49.748;8.490;2023-01-09T10:52:18;2.58;;;0.90;;
51660;SDS011;37741;49.748;8.490;2023-01-09T10:54:51;4.20;;;0.80;;
51660;SDS011;37741;49.748;8.490;2023-01-09T10:57:55;2.13;;;0.70;;
51660;SDS011;37741;49.748;8.490;2023-01-09T11:00:16;1.70;;;0.70;;
51660;SDS011;37741;49.748;8.490;2023-01-09T11:02:44;2.72;;;0.60;;
51660;SDS011;37741;49.748;8.490;2023-01-09T11:05:12;1.58;;;0.57;;
51660;SDS011;37741;49.748;8.490;2023-01-09T11:07:41;4.80;;;0.90;;
51660;SDS011;37741;49.748;8.490;2023-01-09T11:10:09;2.83;;;0.52;;
51660;SDS011;37741;49.748;8.490;2023-01-09T11:12:36;2.10;;;0.60;;
51660;SDS011;37741;49.748;8.490;2023-01-09T11:15:45;1.88;;;1.17;;
51660;SDS011;37741;49.748;8.490;2023-01-09T11:18:15;2.22;;;0.80;;
51660;SDS011;37741;49.748;8.490;2023-01-09T11:20:42;2.70;;;0.70;;
51660;SDS011;37741;49.748;8.490;2023-01-09T11:23:21;1.70;;;0.60;;
51660;SDS011;37741;49.748;8.490;2023-01-09T11:25:52;1.92;;;0.50;;
51660;SDS011;37741;49.748;8.490;2023-01-09T11:28:20;2.88;;;0.60;;
51660;SDS011;37741;49.748;8.490;2023-01-09T11:30:58;2.38;;;0.57;;
51660;SDS011;37741;49.748;8.490;2023-01-09T11:33:30;1.58;;;0.52;;
51660;SDS011;37741;49.748;8.490;2023-01-09T11:36:08;3.22;;;0.93;;
51660;SDS011;37741;49.748;8.490;2023-01-09T11:38:46;2.95;;;0.73;;
51660;SDS011;37741;49.748;8.490;2023-01-09T11:41:18;3.55;;;0.68;;
51660;SDS011;37741;49.748;8.490;2023-01-09T11:43:47;4.15;;;0.60;;
51660;SDS011;37741;49.748;8.490;2023-01-09T11:46:38;1.42;;;0.55;;
51660;SDS011;37741;49.748;8.490;2023-01-09T11:51:42;1.55;;;0.73;;
51660;SDS011;37741;49.748;8.490;2023-01-09T11:56:39;2.25;;;0.55;;
51660;SDS011;37741;49.748;8.490;2023-01-09T11:59:16;2.03;;;0.52;;
51660;SDS011;37741;49.748;8.490;2023-01-09T12:07:21;1.13;;;0.50;;
51660;SDS011;37741;49.748;8.490;2023-01-09T12:21:33;1.92;;;1.00;;
51660;SDS011;37741;49.748;8.490;2023-01-09T12:30:02;1.02;;;0.50;;
51660;SDS011;37741;49.748;8.490;2023-01-09T12:32:40;2.67;;;0.52;;
51660;SDS011;37741;49.748;8.490;2023-01-09T12:35:32;2.15;;;0.60;;
51660;SDS011;37741;49.748;8.490;2023-01-09T12:40:50;1.98;;;0.60;;
51660;SDS011;37741;49.748;8.490;2023-01-09T12:43:29;3.20;;;0.77;;
51660;SDS011;37741;49.748;8.490;2023-01-09T12:46:14;1.58;;;0.68;;
51660;SDS011;37741;49.748;8.490;2023-01-09T12:54:32;3.80;;;0.93;;
51660;SDS011;37741;49.748;8.490;2023-01-09T12:59:52;1.23;;;0.57;;
51660;SDS011;37741;49.748;8.490;2023-01-09T13:02:24;2.65;;;0.80;;
51660;SDS011;37741;49.748;8.490;2023-01-09T13:05:13;3.53;;;0.90;;
51660;SDS011;37741;49.748;8.490;2023-01-09T13:07:46;2.95;;;0.85;;
51660;SDS011;37741;49.748;8.490;2023-01-09T13:12:51;2.43;;;0.83;;
51660;SDS011;37741;49.748;8.490;2023-01-09T13:15:28;3.15;;;0.88;;
51660;SDS011;37741;49.748;8.490;2023-01-09T13:18:27;2.42;;;0.75;;
51660;SDS011;37741;49.748;8.490;2023-01-09T13:20:56;4.10;;;1.33;;
51660;SDS011;37741;49.748;8.490;2023-01-09T13:26:22;1.83;;;0.73;;
51660;SDS011;37741;49.748;8.490;2023-01-09T13:28:53;2.63;;;1.30;;
51660;SDS011;37741;49.748;8.490;2023-01-09T13:34:00;1.50;;;0.52;;
51660;SDS011;37741;49.748;8.490;2023-01-09T13:36:28;1.85;;;0.60;;
51660;SDS011;37741;49.748;8.490;2023-01-09T13:38:57;1.52;;;0.65;;
51660;SDS011;37741;49.748;8.490;2023-01-09T13:41:24;1.55;;;0.55;;
51660;SDS011;37741;49.748;8.490;2023-01-09T13:44:25;1.67;;;0.53;;
51660;SDS011;37741;49.748;8.490;2023-01-09T13:46:56;2.45;;;0.80;;
51660;SDS011;37741;49.748;8.490;2023-01-09T13:51:57;1.90;;;0.60;;
51660;SDS011;37741;49.748;8.490;2023-01-09T13:57:15;1.58;;;0.70;;
51660;SDS011;37741;49.748;8.490;2023-01-09T13:59:52;2.00;;;0.88;;
51660;SDS011;37741;49.748;8.490;2023-01-09T14:10:05;2.75;;;0.60;;
51660;SDS011;37741;49.748;8.490;2023-01-09T14:12:45;1.27;;;0.63;;
51660;SDS011;37741;49.748;8.490;2023-01-09T14:15:22;1.67;;;0.50;;
51660;SDS011;37741;49.748;8.490;2023-01-09T14:17:58;0.52;;;0.30;;
51660;SDS011;37741;49.748;8.490;2023-01-09T14:20:27;2.83;;;0.70;;
51660;SDS011;37741;49.748;8.490;2023-01-09T14:22:59;1.58;;;0.60;;
51660;SDS011;37741;49.748;8.490;2023-01-09T14:25:27;1.67;;;0.60;;
51660;SDS011;37741;49.748;8.490;2023-01-09T14:35:43;2.92;;;0.70;;
51660;SDS011;37741;49.748;8.490;2023-01-09T14:38:25;1.55;;;0.70;;
51660;SDS011;37741;49.748;8.490;2023-01-09T14:43:27;1.90;;;0.80;;
51660;SDS011;37741;49.748;8.490;2023-01-09T14:46:03;1.20;;;0.40;;
51660;SDS011;37741;49.748;8.490;2023-01-09T14:48:37;2.42;;;0.60;;
51660;SDS011;37741;49.748;8.490;2023-01-09T14:51:08;1.10;;;0.50;;
51660;SDS011;37741;49.748;8.490;2023-01-09T14:53:40;2.65;;;1.13;;
51660;SDS011;37741;49.748;8.490;2023-01-09T14:56:16;1.52;;;0.50;;
51660;SDS011;37741;49.748;8.490;2023-01-09T14:59:04;2.08;;;1.00;;
51660;SDS011;37741;49.748;8.490;2023-01-09T15:01:35;2.53;;;0.80;;
51660;SDS011;37741;49.748;8.490;2023-01-09T15:04:02;1.58;;;0.63;;
51660;SDS011;37741;49.748;8.490;2023-01-09T15:06:35;1.80;;;0.68;;
51660;SDS011;37741;49.748;8.490;2023-01-09T15:09:07;2.38;;;0.80;;
51660;SDS011;37741;49.748;8.490;2023-01-09T15:11:57;2.38;;;1.30;;
51660;SDS011;37741;49.748;8.490;2023-01-09T15:16:55;1.27;;;0.60;;
51660;SDS011;37741;49.748;8.490;2023-01-09T15:19:21;2.05;;;0.90;;
51660;SDS011;37741;49.748;8.490;2023-01-09T15:22:01;2.40;;;0.80;;
51660;SDS011;37741;49.748;8.490;2023-01-09T15:24:29;3.83;;;0.88;;
51660;SDS011;37741;49.748;8.490;2023-01-09T15:26:58;1.98;;;0.70;;
51660;SDS011;37741;49.748;8.490;2023-01-09T15:29:34;2.28;;;0.85;;
51660;SDS011;37741;49.748;8.490;2023-01-09T15:32:13;2.00;;;0.60;;
51660;SDS011;37741;49.748;8.490;2023-01-09T15:34:43;2.03;;;0.82;;
51660;SDS011;37741;49.748;8.490;2023-01-09T15:37:17;2.47;;;0.73;;
51660;SDS011;37741;49.748;8.490;2023-01-09T15:39:47;2.25;;;0.90;;
51660;SDS011;37741;49.748;8.490;2023-01-09T15:42:31;2.10;;;1.00;;
51660;SDS011;37741;49.748;8.490;2023-01-09T15:48:17;1.90;;;0.70;;
51660;SDS011;37741;49.748;8.490;2023-01-09T15:50:57;3.25;;;1.02;;
51660;SDS011;37741;49.748;8.490;2023-01-09T15:53:28;3.35;;;0.90;;
51660;SDS011;37741;49.748;8.490;2023-01-09T15:56:27;1.40;;;0.52;;
51660;SDS011;37741;49.748;8.490;2023-01-09T15:58:48;3.00;;;1.02;;
51660;SDS011;37741;49.748;8.490;2023-01-09T16:01:28;3.08;;;0.90;;
51660;SDS011;37741;49.748;8.490;2023-01-09T16:04:15;2.88;;;0.88;;
51660;SDS011;37741;49.748;8.490;2023-01-09T16:06:42;3.63;;;0.80;;
51660;SDS011;37741;49.748;8.490;2023-01-09T16:09:17;1.95;;;0.63;;
51660;SDS011;37741;49.748;8.490;2023-01-09T16:11:49;1.55;;;0.70;;
51660;SDS011;37741;49.748;8.490;2023-01-09T16:14:24;3.63;;;1.00;;
51660;SDS011;37741;49.748;8.490;2023-01-09T16:16:59;2.40;;;1.15;;
51660;SDS011;37741;49.748;8.490;2023-01-09T16:19:32;3.53;;;0.93;;
51660;SDS011;37741;49.748;8.490;2023-01-09T16:22:27;3.88;;;2.17;;
51660;SDS011;37741;49.748;8.490;2023-01-09T16:24:58;2.58;;;0.90;;
51660;SDS011;37741;49.748;8.490;2023-01-09T16:30:05;4.07;;;0.90;;
51660;SDS011;37741;49.748;8.490;2023-01-09T16:32:51;1.92;;;0.70;;
51660;SDS011;37741;49.748;8.490;2023-01-09T16:35:17;2.65;;;1.10;;
51660;SDS011;37741;49.748;8.490;2023-01-09T16:37:44;2.05;;;1.10;;
51660;SDS011;37741;49.748;8.490;2023-01-09T16:42:40;3.15;;;0.77;;
51660;SDS011;37741;49.748;8.490;2023-01-09T16:45:26;3.88;;;0.77;;
51660;SDS011;37741;49.748;8.490;2023-01-09T16:47:53;2.53;;;0.90;;
51660;SDS011;37741;49.748;8.490;2023-01-09T16:50:19;3.30;;;0.80;;
51660;SDS011;37741;49.748;8.490;2023-01-09T16:52:45;1.67;;;0.73;;
51660;SDS011;37741;49.748;8.490;2023-01-09T16:55:11;2.42;;;0.65;;
51660;SDS011;37741;49.748;8.490;2023-01-09T16:57:37;2.78;;;0.85;;
51660;SDS011;37741;49.748;8.490;2023-01-09T17:00:05;3.35;;;1.23;;
51660;SDS011;37741;49.748;8.490;2023-01-09T17:02:32;2.30;;;0.90;;
51660;SDS011;37741;49.748;8.490;2023-01-09T17:04:57;3.40;;;1.05;;
51660;SDS011;37741;49.748;8.490;2023-01-09T17:07:23;2.03;;;0.73;;
51660;SDS011;37741;49.748;8.490;2023-01-09T17:09:49;1.52;;;0.70;;
51660;SDS011;37741;49.748;8.490;2023-01-09T17:12:19;2.35;;;1.02;;
51660;SDS011;37741;49.748;8.490;2023-01-09T17:14:48;1.98;;;0.90;;
51660;SDS011;37741;49.748;8.490;2023-01-09T17:17:14;2.85;;;0.80;;
51660;SDS011;37741;49.748;8.490;2023-01-09T17:19:41;3.45;;;1.85;;
51660;SDS011;37741;49.748;8.490;2023-01-09T17:22:07;3.30;;;0.80;;
51660;SDS011;37741;49.748;8.490;2023-01-09T17:24:33;2.70;;;1.00;;